Terminal Aerodrome Forecast
Issued by NWS Dallas/Fort Worth, TX

Home | Current Version | Previous Version | Text Only | Print | Product List | Glossary On
Versions: 1 2 3 4 5 6 7 8 9 10 11 12 13 14 15 16 17 18 19 20 21 22 23 24 25 26 27 28 29 30 31 32
000
FTUS44 KFWD 281729
TAFDFW
TAF
KDFW 281729Z 2818/2924 01014KT P6SM BKN015 OVC020
      TEMPO 2818/2819 3SM -RA BR BKN010
     FM282200 36012KT P6SM OVC025
     FM290200 32005KT P6SM BKN050 BKN100
     FM291500 35011KT P6SM SCT060 SCT250=

USA.gov is the U.S. government's official web portal to all federal, state and local government web resources and services.